PGT6BT LTFJ-EDDL
Flight info
| Callsign | PGT6BT |
|---|---|
| Flight time | N/A |
| Altitude | 36000 |
| Route | TUDBU DCT NAVOD DCT INVED DCT SOPRO DCT DEXIT DCT RUDNO DCT SULUS T852 ARNIX DCT BADGO DCT DOMUX DOMUX1A |
| Aircraft | B738/M-SDE2E3FGIRWXY/LB1 |
Departure
| Time | 2026-04-29 08:09 |
|---|---|
| Airport | Istanbul Sabiha Gökçen International Airport (LTFJ) |
Arrival
| Time | N/A |
|---|---|
| Airport | Düsseldorf Airport (EDDL) |
| Time | Latitude | Longitude | Altitude | Speed | Heading |
|---|---|---|---|---|---|
| 2026-04-29 07:47 | 40.90419 | 29.31144 | 320 ft | 0 kts | 335° |
| 2026-04-29 07:53 | 40.90418 | 29.31145 | 319 ft | 2 kts | 335° |
| 2026-04-29 07:54 | 40.90396 | 29.31161 | 320 ft | 4 kts | 322° |
| 2026-04-29 07:54 | 40.90377 | 29.31185 | 318 ft | 4 kts | 300° |
| 2026-04-29 07:54 | 40.90370 | 29.31217 | 317 ft | 4 kts | 259° |
| 2026-04-29 07:54 | 40.90373 | 29.31230 | 317 ft | 1 kts | 244° |
| 2026-04-29 07:57 | 40.90372 | 29.31227 | 317 ft | 2 kts | 244° |
| 2026-04-29 07:58 | 40.90353 | 29.31175 | 319 ft | 10 kts | 244° |
| 2026-04-29 07:58 | 40.90321 | 29.31087 | 320 ft | 11 kts | 244° |
| 2026-04-29 07:58 | 40.90289 | 29.31000 | 320 ft | 10 kts | 243° |
| 2026-04-29 07:58 | 40.90258 | 29.30916 | 320 ft | 10 kts | 244° |
| 2026-04-29 07:59 | 40.90202 | 29.30881 | 320 ft | 10 kts | 162° |
| 2026-04-29 07:59 | 40.90141 | 29.30920 | 320 ft | 10 kts | 154° |
| 2026-04-29 07:59 | 40.90078 | 29.30928 | 320 ft | 9 kts | 203° |
| 2026-04-29 07:59 | 40.90034 | 29.30836 | 319 ft | 16 kts | 244° |
| 2026-04-29 08:00 | 40.89977 | 29.30681 | 319 ft | 19 kts | 243° |
| 2026-04-29 08:00 | 40.89919 | 29.30522 | 320 ft | 20 kts | 244° |
| 2026-04-29 08:00 | 40.89853 | 29.30342 | 319 ft | 22 kts | 244° |
| 2026-04-29 08:00 | 40.89786 | 29.30161 | 320 ft | 22 kts | 244° |
| 2026-04-29 08:01 | 40.89722 | 29.29986 | 318 ft | 21 kts | 244° |
| 2026-04-29 08:01 | 40.89659 | 29.29815 | 319 ft | 20 kts | 243° |
| 2026-04-29 08:01 | 40.89598 | 29.29650 | 319 ft | 20 kts | 244° |
| 2026-04-29 08:01 | 40.89539 | 29.29490 | 320 ft | 19 kts | 244° |
| 2026-04-29 08:02 | 40.89483 | 29.29336 | 319 ft | 18 kts | 244° |
| 2026-04-29 08:02 | 40.89436 | 29.29257 | 320 ft | 10 kts | 206° |
| 2026-04-29 08:02 | 40.89372 | 29.29266 | 319 ft | 10 kts | 154° |
| 2026-04-29 08:02 | 40.89348 | 29.29281 | 319 ft | 0 kts | 154° |
| 2026-04-29 08:07 | 40.89346 | 29.29282 | 319 ft | 2 kts | 155° |
| 2026-04-29 08:07 | 40.89306 | 29.29308 | 320 ft | 9 kts | 153° |
| 2026-04-29 08:07 | 40.89279 | 29.29352 | 321 ft | 5 kts | 72° |
| 2026-04-29 08:08 | 40.89283 | 29.29361 | 321 ft | 0 kts | 63° |
| 2026-04-29 08:08 | 40.89283 | 29.29362 | 321 ft | 0 kts | 63° |
| 2026-04-29 08:08 | 40.89292 | 29.29387 | 321 ft | 13 kts | 64° |
| 2026-04-29 08:08 | 40.89438 | 29.29785 | 320 ft | 82 kts | 64° |
| 2026-04-29 08:09 | 40.89779 | 29.30713 | 320 ft | 140 kts | 64° |
| 2026-04-29 08:09 | 40.90268 | 29.32031 | 574 ft | 167 kts | 66° |
| 2026-04-29 08:09 | 40.90776 | 29.33416 | 1400 ft | 168 kts | 64° |
| 2026-04-29 08:09 | 40.91316 | 29.34888 | 1994 ft | 193 kts | 65° |
| 2026-04-29 08:10 | 40.91939 | 29.36585 | 2318 ft | 217 kts | 65° |
| 2026-04-29 08:10 | 40.92607 | 29.38449 | 2862 ft | 232 kts | 64° |
| 2026-04-29 08:10 | 40.93342 | 29.40394 | 3576 ft | 246 kts | 64° |
| 2026-04-29 08:10 | 40.94088 | 29.42409 | 4582 ft | 243 kts | 63° |
| 2026-04-29 08:11 | 40.94838 | 29.44461 | 5261 ft | 254 kts | 63° |
| 2026-04-29 08:11 | 40.95635 | 29.46636 | 5686 ft | 269 kts | 63° |
| 2026-04-29 08:11 | 40.96453 | 29.48877 | 5926 ft | 270 kts | 63° |
| 2026-04-29 08:11 | 40.97375 | 29.51023 | 6172 ft | 268 kts | 47° |
| 2026-04-29 08:12 | 40.98856 | 29.52424 | 6429 ft | 262 kts | 19° |
| 2026-04-29 08:12 | 41.00659 | 29.52709 | 6699 ft | 264 kts | 352° |
| 2026-04-29 08:12 | 41.02429 | 29.52191 | 6947 ft | 265 kts | 347° |
| 2026-04-29 08:12 | 41.04205 | 29.51595 | 6966 ft | 263 kts | 346° |
| 2026-04-29 08:13 | 41.05979 | 29.50991 | 6986 ft | 264 kts | 346° |
| 2026-04-29 08:13 | 41.07764 | 29.50378 | 6996 ft | 267 kts | 346° |
| 2026-04-29 08:13 | 41.09567 | 29.49761 | 7269 ft | 267 kts | 346° |
| 2026-04-29 08:13 | 41.11382 | 29.49145 | 8012 ft | 270 kts | 346° |
| 2026-04-29 08:14 | 41.13202 | 29.48540 | 8923 ft | 269 kts | 346° |
| 2026-04-29 08:14 | 41.14958 | 29.47712 | 9737 ft | 271 kts | 325° |
| 2026-04-29 08:14 | 41.16276 | 29.45948 | 10382 ft | 279 kts | 309° |
| 2026-04-29 08:14 | 41.17456 | 29.43762 | 10564 ft | 304 kts | 305° |
| 2026-04-29 08:15 | 41.18650 | 29.41319 | 10748 ft | 327 kts | 303° |
| 2026-04-29 08:15 | 41.19902 | 29.38694 | 11000 ft | 345 kts | 303° |
| 2026-04-29 08:15 | 41.21201 | 29.35966 | 11594 ft | 352 kts | 303° |
| 2026-04-29 08:15 | 41.22519 | 29.33212 | 12350 ft | 354 kts | 303° |
| 2026-04-29 08:16 | 41.23844 | 29.30463 | 13090 ft | 355 kts | 303° |
| 2026-04-29 08:16 | 41.25187 | 29.27688 | 13816 ft | 357 kts | 303° |
| 2026-04-29 08:16 | 41.26539 | 29.24904 | 14460 ft | 360 kts | 303° |
| 2026-04-29 08:16 | 41.27886 | 29.22135 | 15077 ft | 363 kts | 303° |
| 2026-04-29 08:17 | 41.29262 | 29.19308 | 15724 ft | 365 kts | 303° |
| 2026-04-29 08:17 | 41.30645 | 29.16466 | 16337 ft | 368 kts | 303° |
| 2026-04-29 08:17 | 41.32040 | 29.13599 | 16940 ft | 371 kts | 303° |
| 2026-04-29 08:17 | 41.33446 | 29.10709 | 17528 ft | 374 kts | 303° |
| 2026-04-29 08:18 | 41.34863 | 29.07792 | 18107 ft | 377 kts | 303° |
| 2026-04-29 08:18 | 41.36295 | 29.04841 | 18659 ft | 380 kts | 302° |
| 2026-04-29 08:18 | 41.37732 | 29.01877 | 19194 ft | 382 kts | 302° |
| 2026-04-29 08:18 | 41.39155 | 28.98940 | 19756 ft | 383 kts | 302° |
| 2026-04-29 08:19 | 41.40599 | 28.95956 | 20269 ft | 385 kts | 302° |
| 2026-04-29 08:19 | 41.42053 | 28.92949 | 20789 ft | 387 kts | 302° |
| 2026-04-29 08:19 | 41.43513 | 28.89926 | 21283 ft | 389 kts | 302° |
| 2026-04-29 08:19 | 41.44977 | 28.86891 | 21778 ft | 391 kts | 302° |
| 2026-04-29 08:20 | 41.46453 | 28.83831 | 22271 ft | 393 kts | 302° |
| 2026-04-29 08:20 | 41.47913 | 28.80798 | 22743 ft | 395 kts | 302° |
| 2026-04-29 08:20 | 41.49397 | 28.77713 | 23214 ft | 397 kts | 302° |
| 2026-04-29 08:20 | 41.50890 | 28.74606 | 23673 ft | 399 kts | 302° |
| 2026-04-29 08:21 | 41.52388 | 28.71487 | 24063 ft | 401 kts | 302° |
| 2026-04-29 08:21 | 41.53894 | 28.68346 | 24448 ft | 402 kts | 302° |
| 2026-04-29 08:21 | 41.55401 | 28.65200 | 24838 ft | 403 kts | 302° |
| 2026-04-29 08:21 | 41.56912 | 28.62045 | 25221 ft | 404 kts | 302° |
| 2026-04-29 08:22 | 41.58427 | 28.58876 | 25597 ft | 405 kts | 302° |
| 2026-04-29 08:22 | 41.59946 | 28.55695 | 25958 ft | 406 kts | 302° |
| 2026-04-29 08:22 | 41.61449 | 28.52546 | 26303 ft | 408 kts | 302° |
| 2026-04-29 08:22 | 41.62974 | 28.49345 | 26641 ft | 409 kts | 302° |
| 2026-04-29 08:23 | 41.64509 | 28.46123 | 26967 ft | 411 kts | 302° |
| 2026-04-29 08:23 | 41.66044 | 28.42893 | 27299 ft | 412 kts | 302° |
| 2026-04-29 08:23 | 41.67581 | 28.39660 | 27629 ft | 413 kts | 302° |
| 2026-04-29 08:23 | 41.69123 | 28.36409 | 27949 ft | 414 kts | 302° |
| 2026-04-29 08:24 | 41.70666 | 28.33154 | 28261 ft | 415 kts | 301° |
| 2026-04-29 08:24 | 41.72196 | 28.29926 | 28625 ft | 415 kts | 301° |
| 2026-04-29 08:24 | 41.73732 | 28.26678 | 29149 ft | 411 kts | 301° |
| 2026-04-29 08:24 | 41.75252 | 28.23463 | 29679 ft | 407 kts | 301° |
| 2026-04-29 08:25 | 41.76762 | 28.20264 | 30165 ft | 404 kts | 301° |
| 2026-04-29 08:25 | 41.78262 | 28.17083 | 30536 ft | 403 kts | 301° |
| 2026-04-29 08:25 | 41.79756 | 28.13911 | 30862 ft | 402 kts | 301° |
| 2026-04-29 08:25 | 41.81246 | 28.10744 | 31169 ft | 401 kts | 301° |
| 2026-04-29 08:26 | 41.82728 | 28.07591 | 31522 ft | 400 kts | 301° |
| 2026-04-29 08:26 | 41.84207 | 28.04442 | 31865 ft | 398 kts | 301° |
| 2026-04-29 08:26 | 41.85656 | 28.01353 | 32179 ft | 397 kts | 301° |
| 2026-04-29 08:26 | 41.87123 | 27.98222 | 32491 ft | 396 kts | 301° |
| 2026-04-29 08:27 | 41.88582 | 27.95105 | 32857 ft | 394 kts | 301° |
| 2026-04-29 08:27 | 41.90036 | 27.91997 | 33186 ft | 392 kts | 301° |
| 2026-04-29 08:27 | 41.91484 | 27.88896 | 33487 ft | 391 kts | 301° |
| 2026-04-29 08:27 | 41.92927 | 27.85805 | 33798 ft | 390 kts | 301° |
| 2026-04-29 08:28 | 41.94361 | 27.82729 | 34124 ft | 388 kts | 301° |
| 2026-04-29 08:28 | 41.95792 | 27.79657 | 34389 ft | 387 kts | 301° |
| 2026-04-29 08:28 | 41.97280 | 27.76639 | 34545 ft | 389 kts | 306° |
| 2026-04-29 08:28 | 41.98917 | 27.73792 | 34685 ft | 391 kts | 307° |
| 2026-04-29 08:29 | 42.00605 | 27.70925 | 34890 ft | 390 kts | 307° |
| 2026-04-29 08:29 | 42.02296 | 27.68068 | 35100 ft | 390 kts | 307° |
| 2026-04-29 08:29 | 42.03986 | 27.65207 | 35282 ft | 391 kts | 307° |
| 2026-04-29 08:29 | 42.05674 | 27.62340 | 35448 ft | 391 kts | 307° |
| 2026-04-29 08:30 | 42.07358 | 27.59468 | 35626 ft | 392 kts | 307° |
| 2026-04-29 08:30 | 42.10726 | 27.53701 | 35997 ft | 392 kts | 307° |
| 2026-04-29 08:30 | 42.12385 | 27.50851 | 36116 ft | 391 kts | 307° |
| 2026-04-29 08:31 | 42.14057 | 27.47976 | 36151 ft | 390 kts | 306° |
| 2026-04-29 08:31 | 42.17408 | 27.42201 | 36170 ft | 392 kts | 306° |
| 2026-04-29 08:32 | 42.20770 | 27.36395 | 36176 ft | 393 kts | 306° |
| 2026-04-29 08:32 | 42.24142 | 27.30561 | 36167 ft | 395 kts | 306° |
| 2026-04-29 08:33 | 42.27498 | 27.24745 | 36170 ft | 396 kts | 306° |
| 2026-04-29 08:33 | 42.30876 | 27.18879 | 36164 ft | 395 kts | 306° |
| 2026-04-29 08:34 | 42.34247 | 27.13013 | 36169 ft | 394 kts | 306° |
| 2026-04-29 08:34 | 42.37603 | 27.07163 | 36167 ft | 393 kts | 306° |
| 2026-04-29 08:35 | 42.40924 | 27.01361 | 36167 ft | 392 kts | 306° |
| 2026-04-29 08:35 | 42.44247 | 26.95545 | 36165 ft | 390 kts | 306° |
| 2026-04-29 08:36 | 42.47560 | 26.89735 | 36161 ft | 389 kts | 306° |
| 2026-04-29 08:36 | 42.50855 | 26.83945 | 36164 ft | 388 kts | 306° |
| 2026-04-29 08:37 | 42.54126 | 26.78186 | 36164 ft | 388 kts | 306° |
| 2026-04-29 08:37 | 42.57412 | 26.72390 | 36159 ft | 388 kts | 306° |
| 2026-04-29 08:38 | 42.60699 | 26.66581 | 36168 ft | 388 kts | 306° |
| 2026-04-29 08:38 | 42.63989 | 26.60755 | 36166 ft | 389 kts | 306° |
| 2026-04-29 08:39 | 42.67258 | 26.54954 | 36164 ft | 390 kts | 306° |
| 2026-04-29 08:39 | 42.70557 | 26.49091 | 36157 ft | 391 kts | 306° |
| 2026-04-29 08:40 | 42.73858 | 26.43211 | 36157 ft | 391 kts | 306° |
| 2026-04-29 08:40 | 42.77156 | 26.37323 | 36160 ft | 392 kts | 306° |
| 2026-04-29 08:41 | 42.80455 | 26.31424 | 36155 ft | 392 kts | 306° |
| 2026-04-29 08:41 | 42.83757 | 26.25509 | 36150 ft | 392 kts | 305° |
| 2026-04-29 08:42 | 42.87032 | 26.19628 | 36145 ft | 392 kts | 305° |
| 2026-04-29 08:42 | 42.90325 | 26.13703 | 36135 ft | 392 kts | 305° |
| 2026-04-29 08:43 | 42.93613 | 26.07777 | 36138 ft | 391 kts | 305° |
| 2026-04-29 08:43 | 42.96339 | 26.02854 | 36137 ft | 391 kts | 305° |
| 2026-04-29 08:44 | 43.00149 | 25.95961 | 36126 ft | 391 kts | 305° |
| 2026-04-29 08:44 | 43.03395 | 25.90077 | 36121 ft | 385 kts | 305° |
| 2026-04-29 08:45 | 43.06595 | 25.84263 | 36121 ft | 381 kts | 305° |
| 2026-04-29 08:45 | 43.09768 | 25.78485 | 36130 ft | 378 kts | 305° |
| 2026-04-29 08:46 | 43.12896 | 25.72779 | 36130 ft | 377 kts | 305° |
| 2026-04-29 08:46 | 43.16041 | 25.67030 | 36129 ft | 377 kts | 305° |
| 2026-04-29 08:47 | 43.19185 | 25.61273 | 36139 ft | 378 kts | 305° |
| 2026-04-29 08:47 | 43.21807 | 25.56462 | 36132 ft | 380 kts | 305° |
| 2026-04-29 08:48 | 43.25486 | 25.49700 | 36135 ft | 382 kts | 305° |
| 2026-04-29 08:48 | 43.28668 | 25.43838 | 36130 ft | 384 kts | 305° |
| 2026-04-29 08:49 | 43.31322 | 25.38940 | 36131 ft | 385 kts | 305° |
| 2026-04-29 08:49 | 43.34527 | 25.33015 | 36129 ft | 387 kts | 305° |
| 2026-04-29 08:50 | 43.38251 | 25.26116 | 36132 ft | 387 kts | 305° |
| 2026-04-29 08:50 | 43.40931 | 25.21140 | 36130 ft | 386 kts | 305° |
| 2026-04-29 08:51 | 43.44102 | 25.15244 | 36131 ft | 385 kts | 305° |
| 2026-04-29 08:51 | 43.47281 | 25.09320 | 36131 ft | 384 kts | 304° |
| 2026-04-29 08:52 | 43.50449 | 25.03403 | 36131 ft | 383 kts | 304° |
| 2026-04-29 08:52 | 43.53605 | 24.97498 | 36133 ft | 382 kts | 304° |
| 2026-04-29 08:53 | 43.56724 | 24.91650 | 36138 ft | 380 kts | 304° |
| 2026-04-29 08:53 | 43.59848 | 24.85780 | 36139 ft | 379 kts | 304° |
| 2026-04-29 08:54 | 43.62962 | 24.79917 | 36128 ft | 378 kts | 304° |
| 2026-04-29 08:54 | 43.66068 | 24.74058 | 36145 ft | 378 kts | 304° |
| 2026-04-29 08:55 | 43.69147 | 24.68238 | 36143 ft | 378 kts | 304° |
| 2026-04-29 08:55 | 43.72244 | 24.62373 | 36140 ft | 378 kts | 304° |
| 2026-04-29 08:56 | 43.75347 | 24.56492 | 36141 ft | 379 kts | 305° |
| 2026-04-29 08:56 | 43.78709 | 24.50864 | 36153 ft | 380 kts | 308° |
| 2026-04-29 08:57 | 43.82155 | 24.45353 | 36143 ft | 381 kts | 308° |
| 2026-04-29 08:57 | 43.85623 | 24.39789 | 36147 ft | 382 kts | 308° |
| 2026-04-29 08:58 | 43.89083 | 24.34198 | 36146 ft | 382 kts | 308° |
| 2026-04-29 08:58 | 43.92543 | 24.28583 | 36149 ft | 383 kts | 308° |
| 2026-04-29 08:59 | 43.95977 | 24.22993 | 36147 ft | 383 kts | 308° |
| 2026-04-29 08:59 | 43.99431 | 24.17358 | 36150 ft | 384 kts | 308° |
| 2026-04-29 09:00 | 44.02889 | 24.11707 | 36147 ft | 384 kts | 308° |
| 2026-04-29 09:00 | 44.06341 | 24.06054 | 36145 ft | 384 kts | 308° |
| 2026-04-29 09:01 | 44.09772 | 24.00423 | 36145 ft | 384 kts | 308° |
| 2026-04-29 09:01 | 44.13217 | 23.94759 | 36143 ft | 384 kts | 308° |
| 2026-04-29 09:02 | 44.16663 | 23.89083 | 36138 ft | 384 kts | 308° |
| 2026-04-29 09:02 | 44.20101 | 23.83408 | 36130 ft | 383 kts | 308° |
| 2026-04-29 09:03 | 44.23529 | 23.77737 | 36130 ft | 382 kts | 308° |
| 2026-04-29 09:03 | 44.26920 | 23.72118 | 36138 ft | 381 kts | 308° |
| 2026-04-29 09:04 | 44.30324 | 23.66467 | 36136 ft | 380 kts | 308° |
| 2026-04-29 09:04 | 44.33717 | 23.60820 | 36152 ft | 380 kts | 308° |
| 2026-04-29 09:05 | 44.37112 | 23.55161 | 36146 ft | 379 kts | 308° |
| 2026-04-29 09:05 | 44.40477 | 23.49540 | 36151 ft | 379 kts | 308° |
| 2026-04-29 09:06 | 44.43861 | 23.43877 | 36153 ft | 380 kts | 308° |
| 2026-04-29 09:06 | 44.47243 | 23.38204 | 36149 ft | 379 kts | 307° |
| 2026-04-29 09:07 | 44.50624 | 23.32524 | 36167 ft | 379 kts | 307° |
| 2026-04-29 09:07 | 44.53979 | 23.26874 | 36152 ft | 380 kts | 307° |
| 2026-04-29 09:08 | 44.57355 | 23.21179 | 36160 ft | 380 kts | 307° |
| 2026-04-29 09:08 | 44.60728 | 23.15477 | 36155 ft | 380 kts | 307° |
| 2026-04-29 09:09 | 44.64098 | 23.09770 | 36149 ft | 380 kts | 307° |
| 2026-04-29 09:09 | 44.67467 | 23.04050 | 36149 ft | 380 kts | 307° |
| 2026-04-29 09:10 | 44.70812 | 22.98363 | 36145 ft | 380 kts | 307° |
| 2026-04-29 09:10 | 44.74168 | 22.92644 | 36154 ft | 379 kts | 307° |